createdAt,value
2023-03-21T00:00:48.822Z,26
2023-03-21T00:02:51.058Z,26.9
2023-03-21T00:04:55.079Z,27.1
2023-03-21T00:06:55.183Z,25.4
2023-03-21T00:09:00.545Z,30.3
2023-03-21T00:11:02.683Z,29
2023-03-21T00:15:06.878Z,26.6
2023-03-21T00:17:09.042Z,23.8
2023-03-21T00:19:11.180Z,27.2
2023-03-21T00:23:18.679Z,25.6
2023-03-21T00:31:27.142Z,25.3
2023-03-21T00:33:29.223Z,26.4
2023-03-21T00:35:54.007Z,24.5
2023-03-21T00:37:36.631Z,25.8
2023-03-21T00:39:38.771Z,23.1
2023-03-21T00:41:43.253Z,24.3
2023-03-21T00:42:43.455Z,24.4
2023-03-21T00:44:45.567Z,24.4
2023-03-21T00:47:00.883Z,25.3
2023-03-21T00:48:49.813Z,24.4
2023-03-21T00:50:55.176Z,25.6
2023-03-21T00:52:57.311Z,24.5
2023-03-21T00:54:59.434Z,26.9
2023-03-21T00:57:01.576Z,24.4
2023-03-21T01:03:21.414Z,25.4
2023-03-21T01:09:17.321Z,25
2023-03-21T01:11:19.429Z,24.3
2023-03-21T01:13:21.549Z,21.7
2023-03-21T01:15:23.669Z,23.8
2023-03-21T01:19:48.331Z,24
2023-03-21T01:21:33.265Z,23.9
2023-03-21T01:27:39.622Z,23.5
2023-03-21T01:29:41.728Z,25.8
2023-03-21T01:31:43.864Z,24.5
2023-03-21T01:33:49.205Z,25.6
2023-03-21T01:35:57.578Z,23.2
2023-03-21T01:38:56.132Z,26.1
2023-03-21T01:40:59.387Z,28
2023-03-21T01:43:00.354Z,24.9
2023-03-21T01:45:02.489Z,26.6
2023-03-21T01:47:12.529Z,28
2023-03-21T01:49:09.972Z,25.7
2023-03-21T01:53:14.243Z,23.5
2023-03-21T02:03:35.717Z,28.9
2023-03-21T02:07:32.219Z,28.2
2023-03-21T02:11:36.450Z,30
2023-03-21T02:19:53.326Z,28
2023-03-21T02:23:52.266Z,30.6
2023-03-21T02:25:54.394Z,31.3
2023-03-21T02:27:56.496Z,30.6
2023-03-21T02:30:02.741Z,30.8
2023-03-21T02:32:16.452Z,29.4
2023-03-21T02:34:06.980Z,29.4
2023-03-21T02:35:09.645Z,33.5
2023-03-21T02:37:11.750Z,32
2023-03-21T02:39:13.878Z,28.8
2023-03-21T02:41:18.971Z,30.8
2023-03-21T02:43:23.859Z,31.8
2023-03-21T02:45:23.494Z,31.8
2023-03-21T02:47:25.615Z,32.8
2023-03-21T02:49:27.769Z,27.4
2023-03-21T02:51:29.837Z,26.7
2023-03-21T02:53:31.958Z,28.9
2023-03-21T02:55:34.086Z,27.1
2023-03-21T02:57:43.188Z,33.3
2023-03-21T02:59:51.606Z,30.6
2023-03-21T03:01:43.686Z,28.2
2023-03-21T03:05:47.927Z,28.9
2023-03-21T03:07:50.030Z,29.2
2023-03-21T03:09:52.176Z,29.5
2023-03-21T03:11:57.393Z,30.7
2023-03-21T03:13:59.520Z,30.9
2023-03-21T03:16:01.729Z,29.1
2023-03-21T03:20:15.610Z,30.2
2023-03-21T03:22:09.585Z,31
2023-03-21T03:24:11.664Z,27.2
2023-03-21T03:28:19.133Z,28
2023-03-21T03:30:23.686Z,30.1
2023-03-21T03:32:50.024Z,30.4
2023-03-21T03:38:59.605Z,29.1
2023-03-21T03:41:01.721Z,30
2023-03-21T03:43:03.844Z,29.9
2023-03-21T03:45:05.964Z,27.9
2023-03-21T03:49:10.213Z,26
2023-03-21T03:51:12.330Z,26
2023-03-21T03:55:19.825Z,27.6
2023-03-21T03:57:22.658Z,19.6
2023-03-21T03:59:24.062Z,27.6
2023-03-21T04:01:26.206Z,28.5
2023-03-21T04:03:32.420Z,26.1
2023-03-21T04:05:30.416Z,25.1
2023-03-21T04:07:35.772Z,23.7
2023-03-21T04:09:44.451Z,25.4
2023-03-21T04:11:40.034Z,22
2023-03-21T04:13:42.153Z,23.3
2023-03-21T04:15:44.280Z,25
2023-03-21T04:17:46.725Z,23.1
2023-03-21T04:19:48.506Z,25.4
2023-03-21T04:21:53.758Z,24.7
2023-03-21T04:23:55.885Z,18.6
2023-03-21T04:25:58.013Z,24.7
2023-03-21T04:29:02.831Z,23.9
2023-03-21T04:31:11.076Z,23.8
2023-03-21T04:35:12.444Z,25
2023-03-21T04:37:14.552Z,22.2
2023-03-21T04:39:16.677Z,24.3
2023-03-21T04:45:23.031Z,22.7
2023-03-21T04:47:25.166Z,24.8
2023-03-21T04:49:30.520Z,24.9
2023-03-21T04:51:32.633Z,24.2
2023-03-21T04:53:34.744Z,25
2023-03-21T04:55:37.206Z,24.3
2023-03-21T04:57:38.965Z,25.8
2023-03-21T04:59:41.137Z,25.9
2023-03-21T05:01:43.235Z,22.7
2023-03-21T05:03:48.644Z,26.4
2023-03-21T05:07:52.818Z,26.8
2023-03-21T05:09:54.928Z,24.7
2023-03-21T05:11:57.073Z,24.7
2023-03-21T05:13:59.156Z,23.8
2023-03-21T05:16:01.281Z,25
2023-03-21T05:18:06.666Z,25.5
2023-03-21T05:20:08.762Z,24.7
2023-03-21T05:22:10.931Z,23.9
2023-03-21T05:23:13.582Z,22.7
2023-03-21T05:25:15.702Z,23.7
2023-03-21T05:27:17.813Z,22
2023-03-21T05:29:19.944Z,20.6
2023-03-21T05:31:25.326Z,19.6
2023-03-21T05:33:27.407Z,20.2
2023-03-21T05:35:29.510Z,18.9
2023-03-21T05:39:33.757Z,19
2023-03-21T05:41:35.862Z,19
2023-03-21T05:43:37.955Z,16.8
2023-03-21T05:45:43.353Z,18
2023-03-21T05:47:45.501Z,18.4
2023-03-21T05:49:47.571Z,17.1
2023-03-21T05:51:49.697Z,16.2
2023-03-21T05:53:51.805Z,16.6
2023-03-21T05:55:53.917Z,16.7
2023-03-21T05:57:56.040Z,18.9
2023-03-21T06:00:01.430Z,18.7
2023-03-21T06:02:03.522Z,16.9
2023-03-21T06:04:05.652Z,16.7
2023-03-21T06:08:09.829Z,16.8
2023-03-21T06:10:11.961Z,16.7
2023-03-21T06:12:14.063Z,18.5
2023-03-21T06:14:19.402Z,18.3
2023-03-21T06:16:21.475Z,18.3
2023-03-21T06:18:23.551Z,16
2023-03-21T06:19:26.222Z,18
2023-03-21T06:21:28.327Z,16.7
2023-03-21T06:23:30.444Z,18.1
2023-03-21T06:33:44.185Z,15.9
2023-03-21T06:35:46.379Z,16.5
2023-03-21T06:37:48.430Z,15.1
2023-03-21T06:39:50.518Z,14.9
2023-03-21T06:41:55.892Z,15.9
2023-03-21T06:43:57.997Z,16.8
2023-03-21T06:46:00.105Z,18
2023-03-21T06:50:04.294Z,17.5
2023-03-21T06:54:08.525Z,13.7
2023-03-21T06:56:13.878Z,17.5
2023-03-21T06:58:15.998Z,16.5
2023-03-21T07:00:18.081Z,14.3
2023-03-21T07:06:24.433Z,13.8
2023-03-21T07:08:26.550Z,15.4
2023-03-21T07:10:31.918Z,16
2023-03-21T07:12:34.046Z,16.8
2023-03-21T07:14:36.131Z,15.6
2023-03-21T07:17:05.028Z,16.9
2023-03-21T07:21:09.222Z,15.1
2023-03-21T07:23:14.616Z,15
2023-03-21T07:25:16.757Z,14.9
2023-03-21T07:27:18.845Z,15.1
2023-03-21T07:29:20.936Z,14.7
2023-03-21T07:31:23.067Z,14.8
2023-03-21T07:33:25.176Z,16
2023-03-21T07:35:27.266Z,14.1
2023-03-21T07:37:32.627Z,14.5
2023-03-21T07:39:34.728Z,15.1
2023-03-21T07:41:36.877Z,12.7
2023-03-21T07:43:39.419Z,14.5
2023-03-21T07:45:41.525Z,13.8
2023-03-21T07:47:43.228Z,13.8
2023-03-21T07:49:45.303Z,12.3
2023-03-21T07:55:54.786Z,12.4
2023-03-21T07:57:56.904Z,12.9
2023-03-21T08:04:03.261Z,11.6
2023-03-21T08:06:08.653Z,11.3
2023-03-21T08:08:10.758Z,11.8
2023-03-21T08:11:15.443Z,11
2023-03-21T08:13:17.580Z,11.1
2023-03-21T08:15:19.693Z,11.4
2023-03-21T08:17:21.851Z,10.9
2023-03-21T08:19:27.206Z,11.4
2023-03-21T08:21:29.182Z,11.7
2023-03-21T08:23:31.319Z,11.9
2023-03-21T08:25:33.438Z,11.7
2023-03-21T08:27:35.542Z,10.7
2023-03-21T08:29:37.688Z,11.9
2023-03-21T08:37:49.243Z,10.5
2023-03-21T08:41:53.459Z,9.6
2023-03-21T08:43:55.589Z,12.1
2023-03-21T08:45:57.729Z,10
2023-03-21T08:48:03.004Z,12.3
2023-03-21T08:50:05.122Z,11.6
2023-03-21T08:52:07.235Z,10.7
2023-03-21T08:54:09.381Z,10
2023-03-21T08:58:13.517Z,12.6
2023-03-21T09:00:15.637Z,11.4
2023-03-21T09:04:23.071Z,11.3
2023-03-21T09:06:25.156Z,9.4
2023-03-21T09:07:27.872Z,11
2023-03-21T09:09:29.977Z,11.7
2023-03-21T09:13:35.777Z,11
2023-03-21T09:17:43.150Z,11.2
2023-03-21T09:19:45.254Z,12
2023-03-21T09:21:47.408Z,10.6
2023-03-21T09:25:51.541Z,10.9
2023-03-21T09:27:53.678Z,10.7
2023-03-21T09:29:59.002Z,9.9
2023-03-21T09:34:03.186Z,10.5
2023-03-21T09:42:13.166Z,7.9
2023-03-21T09:46:18.982Z,8.9
2023-03-21T09:48:21.071Z,9.7
2023-03-21T09:50:23.253Z,9.1
2023-03-21T09:52:25.212Z,7.7
2023-03-21T09:54:27.506Z,8.3
2023-03-21T09:58:34.854Z,8.7
2023-03-21T10:00:36.937Z,9.5
2023-03-21T10:02:38.922Z,8.4
2023-03-21T10:03:41.612Z,9.7
2023-03-21T10:05:43.653Z,9.2
2023-03-21T10:07:45.707Z,7.7
2023-03-21T10:09:47.843Z,8.5
2023-03-21T10:11:53.047Z,9.4
2023-03-21T10:13:55.088Z,9.4
2023-03-21T10:15:57.195Z,7.8
2023-03-21T10:17:59.355Z,8.5
2023-03-21T10:20:01.509Z,9.3
2023-03-21T10:22:04.451Z,9.9
2023-03-21T10:24:05.783Z,8.6
2023-03-21T10:26:14.778Z,7.1
2023-03-21T10:28:13.301Z,6.9
2023-03-21T10:30:15.455Z,7.3
2023-03-21T10:32:17.525Z,8.2
2023-03-21T10:34:19.622Z,6.8
2023-03-21T10:36:21.802Z,7.8
2023-03-21T10:38:23.842Z,8.3
2023-03-21T10:40:29.126Z,6.7
2023-03-21T10:42:31.189Z,7.5
2023-03-21T10:52:41.532Z,7.9
2023-03-21T11:03:21.660Z,8.4
2023-03-21T11:11:33.018Z,5.8
2023-03-21T11:19:41.259Z,5.6
2023-03-21T11:25:50.586Z,6.2
2023-03-21T11:27:52.633Z,6.2
2023-03-21T11:29:54.682Z,6
2023-03-21T11:31:56.766Z,6.4
2023-03-21T11:33:58.790Z,5.5
2023-03-21T11:36:04.074Z,6.6
2023-03-21T11:38:06.094Z,6.6
2023-03-21T11:40:08.138Z,6.3
2023-03-21T11:42:10.186Z,6.4
2023-03-21T11:44:12.276Z,5.3
2023-03-21T11:46:14.484Z,7.2
2023-03-21T11:48:16.468Z,6
2023-03-21T11:50:21.570Z,6.1
2023-03-21T11:52:23.636Z,7.2
2023-03-21T11:54:25.695Z,5.4
2023-03-21T11:59:32.441Z,8.1
2023-03-21T12:01:34.469Z,6.1
2023-03-21T12:03:47.649Z,6.5
2023-03-21T12:05:41.716Z,5
2023-03-21T12:07:43.769Z,5.1
2023-03-21T12:11:47.896Z,6.6
2023-03-21T12:13:49.963Z,7
2023-03-21T12:15:54.977Z,5.4
2023-03-21T12:17:57.226Z,7
2023-03-21T12:19:59.283Z,6.4
2023-03-21T12:22:01.341Z,6
2023-03-21T12:24:03.450Z,5.6
2023-03-21T12:26:05.478Z,6.1
2023-03-21T12:28:07.537Z,5.9
2023-03-21T12:30:09.620Z,6.2
2023-03-21T12:32:14.668Z,5.6
2023-03-21T12:34:16.738Z,6.8
2023-03-21T12:36:18.885Z,6.4
2023-03-21T12:38:20.884Z,5
2023-03-21T12:40:22.926Z,5.1
2023-03-21T12:42:25.015Z,5.7
2023-03-21T12:44:27.063Z,6.1
2023-03-21T12:46:32.325Z,5.9
2023-03-21T12:48:34.363Z,5.5
2023-03-21T12:50:36.423Z,6.6
2023-03-21T12:51:39.028Z,6
2023-03-21T12:53:41.073Z,5.7
2023-03-21T12:55:43.140Z,6.4
2023-03-21T12:57:56.500Z,5.8
2023-03-21T12:59:50.444Z,6.5
2023-03-21T13:01:52.524Z,6.3
2023-03-21T13:12:03.088Z,4.3
2023-03-21T13:18:12.236Z,5.4
2023-03-21T13:20:14.286Z,5.9
2023-03-21T13:22:16.385Z,6.3
2023-03-21T13:24:18.438Z,4.2
2023-03-21T13:28:25.731Z,5.3
2023-03-21T13:30:27.926Z,5.3
2023-03-21T13:32:29.960Z,5.5
2023-03-21T13:34:31.985Z,4.8
2023-03-21T13:36:34.078Z,5.4
2023-03-21T13:38:36.163Z,5.8
2023-03-21T13:40:38.545Z,5.1
2023-03-21T13:42:43.440Z,5.1
2023-03-21T13:44:45.520Z,6.9
2023-03-21T13:46:54.119Z,5.1
2023-03-21T13:51:54.353Z,5.7
2023-03-21T13:53:56.401Z,4.8
2023-03-21T13:56:01.648Z,5
2023-03-21T14:00:05.815Z,5
2023-03-21T14:02:08.388Z,4.9
2023-03-21T14:06:12.098Z,4.6
2023-03-21T14:08:21.618Z,6.2
2023-03-21T14:10:19.352Z,4.4
2023-03-21T14:12:21.432Z,4.7
2023-03-21T14:14:23.535Z,4.8
2023-03-21T14:16:25.634Z,4.6
2023-03-21T14:22:31.837Z,4.3
2023-03-21T14:28:41.243Z,5
2023-03-21T14:30:43.421Z,4.2
2023-03-21T14:32:45.414Z,4.9
2023-03-21T14:34:47.510Z,5.2
2023-03-21T14:38:54.807Z,4.9
2023-03-21T14:40:56.916Z,4.8
2023-03-21T14:42:59.014Z,5.5
2023-03-21T14:45:27.574Z,4.3
2023-03-21T14:49:31.757Z,4.3
2023-03-21T14:51:37.008Z,5.1
2023-03-21T14:55:41.159Z,5.3
2023-03-21T14:57:43.278Z,5.4
2023-03-21T14:59:45.354Z,8.7
2023-03-21T15:01:47.500Z,5.1
2023-03-21T15:05:56.335Z,5.1
2023-03-21T15:07:58.447Z,5.9
2023-03-21T15:10:00.533Z,5.1
2023-03-21T15:12:02.621Z,5.2
2023-03-21T15:14:04.683Z,6.5
2023-03-21T15:16:06.811Z,5.5
2023-03-21T15:18:08.864Z,5.3
2023-03-21T15:20:14.098Z,5.9
2023-03-21T15:22:16.191Z,5.3
2023-03-21T15:24:18.275Z,5.6
2023-03-21T15:28:22.448Z,5.3
2023-03-21T15:30:24.524Z,5.7
2023-03-21T15:34:31.837Z,5
2023-03-21T15:39:38.936Z,4.9
2023-03-21T15:43:43.084Z,4.9
2023-03-21T15:45:45.148Z,5.6
2023-03-21T15:47:50.422Z,6
2023-03-21T15:49:52.448Z,5.3
2023-03-21T15:51:54.533Z,5.5
2023-03-21T15:53:56.633Z,6.2
2023-03-21T15:55:58.699Z,5.7
2023-03-21T15:58:00.763Z,5
2023-03-21T16:00:02.847Z,5.4
2023-03-21T16:02:08.193Z,5.3
2023-03-21T16:04:10.137Z,5.8
2023-03-21T16:06:12.239Z,5.2
2023-03-21T16:08:14.290Z,5.2
2023-03-21T16:10:16.367Z,5
2023-03-21T16:12:19.023Z,4.6
2023-03-21T16:14:20.538Z,5.1
2023-03-21T16:16:25.775Z,5.1
2023-03-21T16:18:27.824Z,5.3
2023-03-21T16:20:29.892Z,5.5
2023-03-21T16:22:31.990Z,4.7
2023-03-21T16:24:34.055Z,6.4
2023-03-21T16:26:36.153Z,6.3
2023-03-21T16:28:38.212Z,4.9
2023-03-21T16:30:43.440Z,5.9
2023-03-21T16:32:45.510Z,5.1
2023-03-21T16:34:47.564Z,5.5
2023-03-21T16:35:50.269Z,6.5
2023-03-21T16:37:52.281Z,5.4
2023-03-21T16:39:54.360Z,6.4
2023-03-21T16:41:56.407Z,6.2
2023-03-21T16:44:01.617Z,6.4
2023-03-21T16:46:03.842Z,6.2
2023-03-21T16:48:05.862Z,5.9
2023-03-21T16:50:07.840Z,6.5
2023-03-21T16:52:09.906Z,6.4
2023-03-21T16:54:11.979Z,7.2
2023-03-21T16:56:14.036Z,8.3
2023-03-21T16:58:19.249Z,9
2023-03-21T17:00:21.297Z,6.4
2023-03-21T17:02:23.372Z,8.6
2023-03-21T17:04:25.438Z,7.1
2023-03-21T17:06:27.521Z,7.6
2023-03-21T17:08:29.573Z,7.4
2023-03-21T17:10:31.678Z,4
2023-03-21T17:12:36.860Z,8.3
2023-03-21T17:14:38.910Z,7.7
2023-03-21T17:16:41.012Z,8
2023-03-21T17:18:43.095Z,7.5
2023-03-21T17:20:45.116Z,7.4
2023-03-21T17:22:47.332Z,9.3
2023-03-21T17:24:49.267Z,10.7
2023-03-21T17:26:54.475Z,11.3
2023-03-21T17:28:56.530Z,10.1
2023-03-21T17:30:58.606Z,10.5
2023-03-21T17:32:01.215Z,12.4
2023-03-21T17:34:04.446Z,11.9
2023-03-21T17:36:05.312Z,10.6
2023-03-21T17:38:07.439Z,11
2023-03-21T17:40:12.558Z,12.3
2023-03-21T17:42:14.640Z,13
2023-03-21T17:44:16.829Z,12.3
2023-03-21T17:46:18.912Z,12.3
2023-03-21T17:48:20.950Z,13.8
2023-03-21T17:50:22.975Z,13.1
2023-03-21T17:52:25.057Z,13.5
2023-03-21T17:54:30.322Z,15.5
2023-03-21T17:56:32.482Z,12.4
2023-03-21T17:58:34.632Z,13.2
2023-03-21T18:00:36.909Z,13.3
2023-03-21T18:02:38.732Z,13.2
2023-03-21T18:04:40.860Z,12.4
2023-03-21T18:06:42.936Z,13.5
2023-03-21T18:08:48.159Z,11.9
2023-03-21T18:10:50.291Z,14.2
2023-03-21T18:12:52.481Z,13.2
2023-03-21T18:14:54.598Z,14.9
2023-03-21T18:16:56.757Z,12.9
2023-03-21T18:21:01.313Z,12.8
2023-03-21T18:23:06.224Z,12.1
2023-03-21T18:25:08.307Z,13.9
2023-03-21T18:27:11.038Z,13.1
2023-03-21T18:30:25.710Z,12.2
2023-03-21T18:33:43.281Z,12.7
2023-03-21T18:56:46.605Z,10.3
2023-03-21T18:58:15.112Z,9.8
2023-03-21T19:02:19.307Z,9.1
2023-03-21T19:06:26.828Z,9.3
2023-03-21T19:08:28.966Z,8.8
2023-03-21T19:10:31.061Z,8.6
2023-03-21T19:12:33.088Z,7.3
2023-03-21T19:14:35.253Z,7.8
2023-03-21T19:16:56.498Z,6.9
2023-03-21T19:18:54.373Z,8.4
2023-03-21T19:20:44.857Z,7.6
2023-03-21T19:22:46.938Z,8.1
2023-03-21T19:24:22.864Z,8.6
2023-03-21T19:27:53.746Z,8.6
2023-03-21T19:30:10.665Z,8.7
2023-03-21T19:51:20.189Z,8.4
2023-03-21T20:06:43.505Z,9.4
2023-03-21T20:10:47.676Z,8.2
2023-03-21T20:12:49.712Z,8.5
2023-03-21T20:16:57.332Z,8.1
2023-03-21T20:20:02.081Z,9.1
2023-03-21T20:22:07.732Z,10
2023-03-21T20:24:06.219Z,8.4
2023-03-21T20:26:08.376Z,9
2023-03-21T20:28:17.321Z,9.2
2023-03-21T20:30:15.926Z,9.5
2023-03-21T20:36:39.288Z,9.4
2023-03-21T20:38:24.448Z,8.6
2023-03-21T20:40:26.624Z,8
2023-03-21T20:42:32.716Z,9.2
2023-03-21T20:44:56.045Z,8.5
2023-03-21T20:46:37.689Z,8.1
2023-03-21T20:48:38.235Z,8.3
2023-03-21T20:50:40.370Z,11
2023-03-21T20:53:06.286Z,7.5
2023-03-21T20:54:44.344Z,9.8
2023-03-21T20:56:51.295Z,8.2
2023-03-21T20:59:07.931Z,8.3
2023-03-21T21:00:55.442Z,8.6
2023-03-21T21:05:24.564Z,9
2023-03-21T21:07:01.852Z,8
2023-03-21T21:09:03.889Z,8.3
2023-03-21T21:11:56.929Z,7.2
2023-03-21T21:13:11.292Z,6.9
2023-03-21T21:15:13.424Z,6.4
2023-03-21T21:16:16.184Z,6.6
2023-03-21T21:18:18.471Z,8.2
2023-03-21T21:22:22.428Z,6.1
2023-03-21T21:24:27.790Z,6.5
2023-03-21T21:30:34.118Z,6
2023-03-21T21:32:36.226Z,6.8
2023-03-21T21:38:45.464Z,7.6
2023-03-21T21:44:51.845Z,8.8
2023-03-21T21:46:53.976Z,8.5
2023-03-21T21:48:56.005Z,7.9
2023-03-21T21:50:58.132Z,9.8
2023-03-21T21:53:03.537Z,9.2
2023-03-21T21:55:05.660Z,9.1
2023-03-21T22:01:11.850Z,10.5
2023-03-21T22:03:13.917Z,10.3
2023-03-21T22:05:16.018Z,11.2
2023-03-21T22:07:21.399Z,10.9
2023-03-21T22:09:23.536Z,11.2
2023-03-21T22:11:25.657Z,9.8
2023-03-21T22:15:56.628Z,10.2
2023-03-21T22:17:58.672Z,10.2
2023-03-21T22:20:06.540Z,11
2023-03-21T22:22:05.928Z,10.1
2023-03-21T22:24:08.053Z,16.4
2023-03-21T22:26:10.125Z,10.3
2023-03-21T22:28:12.234Z,11.6
2023-03-21T22:30:14.376Z,11.9
2023-03-21T22:32:16.502Z,10.9
2023-03-21T22:34:21.851Z,10.1
2023-03-21T22:36:23.978Z,10.4
2023-03-21T22:38:26.114Z,10.1
2023-03-21T22:40:28.278Z,10.2
2023-03-21T22:42:30.379Z,10.2
2023-03-21T22:44:32.500Z,10.2
2023-03-21T22:46:34.646Z,9.9
2023-03-21T22:50:42.213Z,10.1
2023-03-21T22:52:44.274Z,9.4
2023-03-21T22:54:46.531Z,10.6
2023-03-21T22:56:48.516Z,9.3
2023-03-21T22:58:50.576Z,10
2023-03-21T23:00:52.683Z,12
2023-03-21T23:02:57.944Z,12.1
2023-03-21T23:08:04.889Z,11.1
2023-03-21T23:10:06.987Z,9.5
2023-03-21T23:12:09.155Z,8.1
2023-03-21T23:14:11.272Z,8.5
2023-03-21T23:16:16.699Z,8
2023-03-21T23:18:18.754Z,9.3
2023-03-21T23:20:20.905Z,7.9
2023-03-21T23:22:22.994Z,8.4
2023-03-21T23:24:25.115Z,7.8
2023-03-21T23:28:29.418Z,8.4
2023-03-21T23:32:36.828Z,8.5
2023-03-21T23:38:43.099Z,6.3
2023-03-21T23:40:45.240Z,5.2
2023-03-21T23:42:47.352Z,6.1
2023-03-21T23:44:52.608Z,5
2023-03-21T23:46:54.713Z,5.6
2023-03-21T23:48:56.733Z,4.8
2023-03-21T23:55:03.097Z,4.9
2023-03-21T23:57:05.092Z,5.5
